sensor_id;sensor_type;location;lat;lon;timestamp;pressure;altitude;pressure_sealevel;temperature;humidity
34124;BME280;13153;52.316;21.166;2022-09-03T00:01:52;100970.19;;;15.84;48.08
34124;BME280;13153;52.316;21.166;2022-09-03T00:04:50;100964.75;;;15.75;48.79
34124;BME280;13153;52.316;21.166;2022-09-03T00:07:50;100963.88;;;15.75;48.73
34124;BME280;13153;52.316;21.166;2022-09-03T00:16:19;100975.22;;;15.65;48.54
34124;BME280;13153;52.316;21.166;2022-09-03T00:18:56;100974.25;;;15.61;48.63
34124;BME280;13153;52.316;21.166;2022-09-03T00:21:55;100973.38;;;15.59;48.69
34124;BME280;13153;52.316;21.166;2022-09-03T00:24:28;100972.38;;;15.54;48.92
34124;BME280;13153;52.316;21.166;2022-09-03T00:27:02;100968.81;;;15.52;48.64
34124;BME280;13153;52.316;21.166;2022-09-03T00:29:38;100967.84;;;15.47;49.13
34124;BME280;13153;52.316;21.166;2022-09-03T00:32:14;100968.63;;;15.41;48.78
34124;BME280;13153;52.316;21.166;2022-09-03T00:34:49;100971.22;;;15.37;49.27
34124;BME280;13153;52.316;21.166;2022-09-03T00:37:16;100961.34;;;15.28;49.20
34124;BME280;13153;52.316;21.166;2022-09-03T00:39:42;100963.88;;;15.20;49.35
34124;BME280;13153;52.316;21.166;2022-09-03T00:42:36;100965.50;;;15.12;49.74
34124;BME280;13153;52.316;21.166;2022-09-03T00:48:29;100969.78;;;15.06;50.04
34124;BME280;13153;52.316;21.166;2022-09-03T00:51:30;100967.09;;;15.03;50.23
34124;BME280;13153;52.316;21.166;2022-09-03T00:54:18;100972.38;;;15.00;50.64
34124;BME280;13153;52.316;21.166;2022-09-03T01:05:21;100984.25;;;15.25;50.58
34124;BME280;13153;52.316;21.166;2022-09-03T01:08:19;100969.28;;;15.27;50.20
34124;BME280;13153;52.316;21.166;2022-09-03T01:14:25;100970.13;;;15.24;49.43
34124;BME280;13153;52.316;21.166;2022-09-03T01:26:09;100971.56;;;15.05;49.64
34124;BME280;13153;52.316;21.166;2022-09-03T01:28:53;100967.03;;;14.98;49.79
34124;BME280;13153;52.316;21.166;2022-09-03T01:40:23;100968.78;;;14.98;50.40
34124;BME280;13153;52.316;21.166;2022-09-03T01:45:59;100973.25;;;15.00;51.32
34124;BME280;13153;52.316;21.166;2022-09-03T01:51:20;100966.13;;;14.96;51.39
34124;BME280;13153;52.316;21.166;2022-09-03T01:57:23;100974.13;;;14.99;51.97
34124;BME280;13153;52.316;21.166;2022-09-03T01:59:59;100965.31;;;15.00;51.33
34124;BME280;13153;52.316;21.166;2022-09-03T02:02:28;100961.69;;;14.95;51.71
34124;BME280;13153;52.316;21.166;2022-09-03T02:05:13;100961.63;;;14.92;52.06
34124;BME280;13153;52.316;21.166;2022-09-03T02:07:59;100960.66;;;14.87;51.58
34124;BME280;13153;52.316;21.166;2022-09-03T02:13:38;100956.84;;;14.73;50.89
34124;BME280;13153;52.316;21.166;2022-09-03T02:16:35;100953.22;;;14.68;51.17
34124;BME280;13153;52.316;21.166;2022-09-03T02:19:06;100947.91;;;14.68;51.50
34124;BME280;13153;52.316;21.166;2022-09-03T02:21:39;100955.00;;;14.69;51.50
34124;BME280;13153;52.316;21.166;2022-09-03T02:24:08;100947.81;;;14.62;51.25
34124;BME280;13153;52.316;21.166;2022-09-03T02:26:34;100947.69;;;14.56;51.64
34124;BME280;13153;52.316;21.166;2022-09-03T02:29:02;100954.72;;;14.53;51.55
34124;BME280;13153;52.316;21.166;2022-09-03T02:31:28;100952.00;;;14.50;52.37
34124;BME280;13153;52.316;21.166;2022-09-03T02:33:56;100946.59;;;14.46;53.01
34124;BME280;13153;52.316;21.166;2022-09-03T02:36:31;100949.28;;;14.47;52.87
34124;BME280;13153;52.316;21.166;2022-09-03T02:38:58;100947.56;;;14.49;52.46
34124;BME280;13153;52.316;21.166;2022-09-03T02:41:24;100947.56;;;14.49;52.40
34124;BME280;13153;52.316;21.166;2022-09-03T02:44:02;100951.06;;;14.48;52.52
34124;BME280;13153;52.316;21.166;2022-09-03T02:46:45;100951.06;;;14.48;53.30
34124;BME280;13153;52.316;21.166;2022-09-03T02:49:13;100949.25;;;14.46;52.86
34124;BME280;13153;52.316;21.166;2022-09-03T02:51:42;100951.03;;;14.47;52.98
34124;BME280;13153;52.316;21.166;2022-09-03T02:54:10;100951.94;;;14.47;52.67
34124;BME280;13153;52.316;21.166;2022-09-03T02:56:36;100951.00;;;14.45;52.62
34124;BME280;13153;52.316;21.166;2022-09-03T02:59:05;100954.50;;;14.41;52.76
34124;BME280;13153;52.316;21.166;2022-09-03T03:01:31;100944.69;;;14.39;52.54
34124;BME280;13153;52.316;21.166;2022-09-03T03:03:57;100937.56;;;14.35;52.97
34124;BME280;13153;52.316;21.166;2022-09-03T03:06:23;100944.53;;;14.31;52.81
34124;BME280;13153;52.316;21.166;2022-09-03T03:08:49;100942.66;;;14.26;53.55
34124;BME280;13153;52.316;21.166;2022-09-03T03:11:17;100941.69;;;14.22;53.79
34124;BME280;13153;52.316;21.166;2022-09-03T03:13:44;100937.31;;;14.23;53.64
34124;BME280;13153;52.316;21.166;2022-09-03T03:16:12;100945.22;;;14.21;53.23
34124;BME280;13153;52.316;21.166;2022-09-03T03:18:38;100942.47;;;14.16;53.51
34124;BME280;13153;52.316;21.166;2022-09-03T03:21:10;100946.81;;;14.13;52.91
34124;BME280;13153;52.316;21.166;2022-09-03T03:23:37;100945.94;;;14.14;53.60
34124;BME280;13153;52.316;21.166;2022-09-03T03:26:08;100953.00;;;14.13;53.16
34124;BME280;13153;52.316;21.166;2022-09-03T03:28:35;100954.75;;;14.13;53.11
34124;BME280;13153;52.316;21.166;2022-09-03T03:33:35;100953.69;;;14.05;52.73
34124;BME280;13153;52.316;21.166;2022-09-03T03:36:14;100953.66;;;14.03;53.23
34124;BME280;13153;52.316;21.166;2022-09-03T03:38:42;100953.63;;;14.02;53.62
34124;BME280;13153;52.316;21.166;2022-09-03T03:41:18;100958.88;;;14.00;53.78
34124;BME280;13153;52.316;21.166;2022-09-03T03:43:47;100964.13;;;13.99;53.77
34124;BME280;13153;52.316;21.166;2022-09-03T03:46:13;100961.44;;;13.97;53.44
34124;BME280;13153;52.316;21.166;2022-09-03T03:48:42;100965.84;;;13.97;53.56
34124;BME280;13153;52.316;21.166;2022-09-03T03:51:09;100969.38;;;13.97;53.85
34124;BME280;13153;52.316;21.166;2022-09-03T03:53:37;100973.75;;;13.95;53.53
34124;BME280;13153;52.316;21.166;2022-09-03T03:56:06;100970.22;;;13.95;52.84
34124;BME280;13153;52.316;21.166;2022-09-03T03:58:34;100976.44;;;13.97;53.37
34124;BME280;13153;52.316;21.166;2022-09-03T04:01:14;100972.94;;;13.98;52.84
34124;BME280;13153;52.316;21.166;2022-09-03T04:03:41;100974.78;;;14.02;52.71
34124;BME280;13153;52.316;21.166;2022-09-03T04:06:09;100965.06;;;14.01;53.08
34124;BME280;13153;52.316;21.166;2022-09-03T04:08:38;100969.47;;;14.00;52.50
34124;BME280;13153;52.316;21.166;2022-09-03T04:11:07;100972.19;;;14.03;52.47
34124;BME280;13153;52.316;21.166;2022-09-03T04:13:37;100966.94;;;14.06;52.95
34124;BME280;13153;52.316;21.166;2022-09-03T04:16:07;100975.06;;;14.14;52.79
34124;BME280;13153;52.316;21.166;2022-09-03T04:18:34;100973.66;;;14.31;52.58
34124;BME280;13153;52.316;21.166;2022-09-03T04:21:07;100971.50;;;14.56;51.93
34124;BME280;13153;52.316;21.166;2022-09-03T04:23:37;100969.41;;;14.83;51.16
34124;BME280;13153;52.316;21.166;2022-09-03T04:26:06;100985.84;;;15.15;50.31
34124;BME280;13153;52.316;21.166;2022-09-03T04:28:33;100984.69;;;15.49;49.24
34124;BME280;13153;52.316;21.166;2022-09-03T04:31:05;100977.22;;;15.81;48.13
34124;BME280;13153;52.316;21.166;2022-09-03T04:33:32;100984.72;;;16.09;47.31
34124;BME280;13153;52.316;21.166;2022-09-03T04:36:20;100978.00;;;16.39;46.41
34124;BME280;13153;52.316;21.166;2022-09-03T04:38:49;100986.22;;;16.59;46.08
34124;BME280;13153;52.316;21.166;2022-09-03T04:41:19;100978.47;;;16.78;45.75
34124;BME280;13153;52.316;21.166;2022-09-03T04:43:45;100986.66;;;16.98;45.28
34124;BME280;13153;52.316;21.166;2022-09-03T04:46:13;100993.09;;;17.22;44.89
34124;BME280;13153;52.316;21.166;2022-09-03T04:48:40;100984.44;;;17.48;44.50
34124;BME280;13153;52.316;21.166;2022-09-03T04:51:12;100989.09;;;17.72;43.92
34124;BME280;13153;52.316;21.166;2022-09-03T04:53:41;100996.34;;;17.98;44.03
34124;BME280;13153;52.316;21.166;2022-09-03T04:56:17;101002.69;;;18.20;44.27
34124;BME280;13153;52.316;21.166;2022-09-03T04:58:45;101001.03;;;18.47;43.97
34124;BME280;13153;52.316;21.166;2022-09-03T05:01:17;101003.84;;;18.87;43.05
34124;BME280;13153;52.316;21.166;2022-09-03T05:03:44;101004.78;;;19.20;42.69
34124;BME280;13153;52.316;21.166;2022-09-03T05:06:10;100997.69;;;19.31;41.77
34124;BME280;13153;52.316;21.166;2022-09-03T05:08:36;100999.50;;;19.58;40.76
34124;BME280;13153;52.316;21.166;2022-09-03T05:11:05;100999.44;;;19.94;40.26
34124;BME280;13153;52.316;21.166;2022-09-03T05:13:32;100999.31;;;20.32;39.36
34124;BME280;13153;52.316;21.166;2022-09-03T05:16:11;100997.44;;;20.62;38.52
34124;BME280;13153;52.316;21.166;2022-09-03T05:18:38;101001.72;;;20.90;38.03
34124;BME280;13153;52.316;21.166;2022-09-03T05:21:10;101005.16;;;21.14;37.22
34124;BME280;13153;52.316;21.166;2022-09-03T05:23:43;101013.06;;;21.36;37.13
34124;BME280;13153;52.316;21.166;2022-09-03T05:26:23;101010.09;;;21.70;36.58
34124;BME280;13153;52.316;21.166;2022-09-03T05:28:57;101010.66;;;22.01;35.97
34124;BME280;13153;52.316;21.166;2022-09-03T05:31:27;101013.94;;;22.30;35.33
34124;BME280;13153;52.316;21.166;2022-09-03T05:33:56;101018.81;;;22.68;35.20
34124;BME280;13153;52.316;21.166;2022-09-03T05:36:27;101020.13;;;23.06;34.16
34124;BME280;13153;52.316;21.166;2022-09-03T05:38:53;101020.81;;;23.19;33.86
34124;BME280;13153;52.316;21.166;2022-09-03T05:41:19;101021.28;;;23.45;34.06
34124;BME280;13153;52.316;21.166;2022-09-03T05:43:52;101022.91;;;24.08;33.04
34124;BME280;13153;52.316;21.166;2022-09-03T05:46:26;101013.44;;;24.34;32.30
34124;BME280;13153;52.316;21.166;2022-09-03T05:49:00;101018.38;;;24.56;31.84
34124;BME280;13153;52.316;21.166;2022-09-03T05:51:27;101013.00;;;24.56;31.72
34124;BME280;13153;52.316;21.166;2022-09-03T05:53:53;101008.81;;;24.83;31.47
34124;BME280;13153;52.316;21.166;2022-09-03T05:56:23;101010.94;;;25.09;31.06
34124;BME280;13153;52.316;21.166;2022-09-03T05:58:52;101012.72;;;25.45;31.09
34124;BME280;13153;52.316;21.166;2022-09-03T06:01:24;101010.59;;;25.59;31.03
34124;BME280;13153;52.316;21.166;2022-09-03T06:03:59;101011.84;;;25.82;30.91
34124;BME280;13153;52.316;21.166;2022-09-03T06:06:28;101008.50;;;26.39;30.25
34124;BME280;13153;52.316;21.166;2022-09-03T06:08:56;101006.06;;;26.88;29.79
34124;BME280;13153;52.316;21.166;2022-09-03T06:11:28;101016.28;;;27.36;28.95
34124;BME280;13153;52.316;21.166;2022-09-03T06:13:56;101016.50;;;27.83;27.53
34124;BME280;13153;52.316;21.166;2022-09-03T06:16:23;101011.13;;;28.08;27.12
34124;BME280;13153;52.316;21.166;2022-09-03T06:18:50;101015.41;;;27.88;27.73
34124;BME280;13153;52.316;21.166;2022-09-03T06:21:16;101009.78;;;27.42;28.26
34124;BME280;13153;52.316;21.166;2022-09-03T06:23:41;101015.50;;;27.33;28.81
34124;BME280;13153;52.316;21.166;2022-09-03T06:26:11;101012.88;;;27.57;27.80
34124;BME280;13153;52.316;21.166;2022-09-03T06:28:40;101011.56;;;27.71;28.46
34124;BME280;13153;52.316;21.166;2022-09-03T06:31:11;101019.63;;;27.97;28.06
34124;BME280;13153;52.316;21.166;2022-09-03T06:33:38;101025.50;;;28.35;27.46
34124;BME280;13153;52.316;21.166;2022-09-03T06:36:08;101013.22;;;28.49;27.38
34124;BME280;13153;52.316;21.166;2022-09-03T06:38:36;101013.00;;;28.55;27.49
34124;BME280;13153;52.316;21.166;2022-09-03T06:41:12;101014.09;;;28.50;27.62
34124;BME280;13153;52.316;21.166;2022-09-03T06:43:41;101015.06;;;28.96;26.79
34124;BME280;13153;52.316;21.166;2022-09-03T06:46:19;101009.41;;;28.55;27.21
34124;BME280;13153;52.316;21.166;2022-09-03T06:48:45;101009.28;;;28.81;27.52
34124;BME280;13153;52.316;21.166;2022-09-03T06:51:20;101010.03;;;29.08;27.15
34124;BME280;13153;52.316;21.166;2022-09-03T06:53:49;101016.69;;;29.00;27.04
34124;BME280;13153;52.316;21.166;2022-09-03T06:56:20;101011.19;;;29.24;26.60
34124;BME280;13153;52.316;21.166;2022-09-03T06:59:03;101008.97;;;29.56;26.92
34124;BME280;13153;52.316;21.166;2022-09-03T07:01:31;101008.16;;;29.54;26.58
34124;BME280;13153;52.316;21.166;2022-09-03T07:04:04;101014.47;;;29.33;25.98
34124;BME280;13153;52.316;21.166;2022-09-03T07:06:38;101014.28;;;29.37;26.45
34124;BME280;13153;52.316;21.166;2022-09-03T07:09:10;101014.09;;;29.64;27.22
34124;BME280;13153;52.316;21.166;2022-09-03T07:11:36;101014.94;;;29.86;25.79
34124;BME280;13153;52.316;21.166;2022-09-03T07:14:03;101018.19;;;29.94;25.68
34124;BME280;13153;52.316;21.166;2022-09-03T07:16:34;101006.94;;;30.23;26.05
34124;BME280;13153;52.316;21.166;2022-09-03T07:19:00;101009.25;;;30.91;25.58
34124;BME280;13153;52.316;21.166;2022-09-03T07:21:30;101016.34;;;31.13;25.08
34124;BME280;13153;52.316;21.166;2022-09-03T07:23:56;101013.72;;;30.73;24.38
34124;BME280;13153;52.316;21.166;2022-09-03T07:26:26;101014.88;;;30.28;24.80
34124;BME280;13153;52.316;21.166;2022-09-03T07:28:53;101018.41;;;29.89;25.86
34124;BME280;13153;52.316;21.166;2022-09-03T07:31:25;101017.44;;;29.48;26.28
34124;BME280;13153;52.316;21.166;2022-09-03T07:33:56;101025.44;;;29.51;26.99
34124;BME280;13153;52.316;21.166;2022-09-03T07:36:25;101024.25;;;29.58;26.92
34124;BME280;13153;52.316;21.166;2022-09-03T07:38:56;101021.53;;;29.58;27.39
34124;BME280;13153;52.316;21.166;2022-09-03T07:41:23;101024.03;;;29.43;27.32
34124;BME280;13153;52.316;21.166;2022-09-03T07:43:50;101023.59;;;29.30;28.29
34124;BME280;13153;52.316;21.166;2022-09-03T07:46:22;101014.19;;;29.17;28.69
34124;BME280;13153;52.316;21.166;2022-09-03T07:48:58;101025.72;;;29.00;27.83
34124;BME280;13153;52.316;21.166;2022-09-03T07:51:29;101017.72;;;28.74;27.11
34124;BME280;13153;52.316;21.166;2022-09-03T07:54:01;101018.41;;;28.55;28.12
34124;BME280;13153;52.316;21.166;2022-09-03T07:56:28;101020.13;;;28.58;28.28
34124;BME280;13153;52.316;21.166;2022-09-03T07:58:59;101021.41;;;28.48;28.63
34124;BME280;13153;52.316;21.166;2022-09-03T08:01:28;101017.25;;;28.38;29.18
34124;BME280;13153;52.316;21.166;2022-09-03T08:03:55;101021.84;;;28.36;28.79
34124;BME280;13153;52.316;21.166;2022-09-03T08:06:24;101022.63;;;28.39;29.27
34124;BME280;13153;52.316;21.166;2022-09-03T08:08:59;101016.22;;;28.42;28.45
34124;BME280;13153;52.316;21.166;2022-09-03T08:11:27;101016.03;;;28.46;29.23
34124;BME280;13153;52.316;21.166;2022-09-03T08:14:13;101019.16;;;28.59;27.18
34124;BME280;13153;52.316;21.166;2022-09-03T08:16:43;101022.16;;;28.51;27.48
34124;BME280;13153;52.316;21.166;2022-09-03T08:19:09;101025.97;;;28.46;27.75
34124;BME280;13153;52.316;21.166;2022-09-03T08:21:38;101023.28;;;28.46;26.33
34124;BME280;13153;52.316;21.166;2022-09-03T08:24:06;101021.63;;;28.42;27.34
34124;BME280;13153;52.316;21.166;2022-09-03T08:26:36;101018.94;;;28.65;27.98
34124;BME280;13153;52.316;21.166;2022-09-03T08:29:05;101014.22;;;28.93;27.21
34124;BME280;13153;52.316;21.166;2022-09-03T08:31:32;101017.91;;;29.14;26.37
34124;BME280;13153;52.316;21.166;2022-09-03T08:34:01;101010.91;;;28.87;25.57
34124;BME280;13153;52.316;21.166;2022-09-03T08:36:34;101012.50;;;28.44;24.14
34124;BME280;13153;52.316;21.166;2022-09-03T08:39:04;101012.38;;;28.24;25.78
34124;BME280;13153;52.316;21.166;2022-09-03T08:45:00;101007.03;;;28.22;27.07
34124;BME280;13153;52.316;21.166;2022-09-03T08:47:43;101006.97;;;28.47;26.81
34124;BME280;13153;52.316;21.166;2022-09-03T08:50:28;101007.09;;;28.19;24.87
34124;BME280;13153;52.316;21.166;2022-09-03T08:53:21;100997.50;;;27.59;25.45
34124;BME280;13153;52.316;21.166;2022-09-03T08:55:58;101007.13;;;27.40;25.65
34124;BME280;13153;52.316;21.166;2022-09-03T08:58:31;101002.13;;;27.28;25.69
34124;BME280;13153;52.316;21.166;2022-09-03T09:07:20;100987.72;;;26.70;26.41
34124;BME280;13153;52.316;21.166;2022-09-03T09:10:04;100981.91;;;26.84;27.15
34124;BME280;13153;52.316;21.166;2022-09-03T09:15:31;100987.16;;;26.88;28.52
34124;BME280;13153;52.316;21.166;2022-09-03T09:21:14;100989.69;;;26.65;26.03
34124;BME280;13153;52.316;21.166;2022-09-03T09:23:48;100989.06;;;26.57;27.21
34124;BME280;13153;52.316;21.166;2022-09-03T09:26:18;100985.03;;;26.41;26.71
34124;BME280;13153;52.316;21.166;2022-09-03T09:29:12;100982.66;;;26.28;27.56
34124;BME280;13153;52.316;21.166;2022-09-03T09:31:39;100979.25;;;26.22;26.78
34124;BME280;13153;52.316;21.166;2022-09-03T09:34:10;100979.72;;;26.05;27.61
34124;BME280;13153;52.316;21.166;2022-09-03T09:36:56;100981.16;;;26.18;27.89
34124;BME280;13153;52.316;21.166;2022-09-03T09:39:22;100979.28;;;26.53;28.59
34124;BME280;13153;52.316;21.166;2022-09-03T09:41:59;100978.56;;;26.46;27.00
34124;BME280;13153;52.316;21.166;2022-09-03T09:44:40;100990.94;;;26.22;26.17
34124;BME280;13153;52.316;21.166;2022-09-03T09:47:12;100978.38;;;26.21;26.57
34124;BME280;13153;52.316;21.166;2022-09-03T09:50:00;100975.28;;;26.03;25.97
34124;BME280;13153;52.316;21.166;2022-09-03T09:52:29;100971.34;;;25.83;26.38
34124;BME280;13153;52.316;21.166;2022-09-03T09:55:19;100973.53;;;25.69;27.22
34124;BME280;13153;52.316;21.166;2022-09-03T09:57:46;100961.13;;;25.60;27.45
34124;BME280;13153;52.316;21.166;2022-09-03T10:00:17;100975.88;;;25.46;28.11
34124;BME280;13153;52.316;21.166;2022-09-03T10:02:52;100970.34;;;25.52;26.88
34124;BME280;13153;52.316;21.166;2022-09-03T10:05:28;100972.72;;;25.65;27.98
34124;BME280;13153;52.316;21.166;2022-09-03T10:07:58;100975.22;;;25.73;28.04
34124;BME280;13153;52.316;21.166;2022-09-03T10:10:25;100968.09;;;25.71;25.74
34124;BME280;13153;52.316;21.166;2022-09-03T10:13:08;100973.88;;;25.54;26.34
34124;BME280;13153;52.316;21.166;2022-09-03T10:15:48;100969.88;;;25.72;27.52
34124;BME280;13153;52.316;21.166;2022-09-03T10:18:45;100959.72;;;25.81;27.04
34124;BME280;13153;52.316;21.166;2022-09-03T10:21:23;100967.44;;;25.59;25.04
34124;BME280;13153;52.316;21.166;2022-09-03T10:26:56;100963.56;;;25.37;25.36
34124;BME280;13153;52.316;21.166;2022-09-03T10:29:24;100951.88;;;25.38;26.55
34124;BME280;13153;52.316;21.166;2022-09-03T10:32:47;100957.47;;;25.29;26.10
34124;BME280;13153;52.316;21.166;2022-09-03T10:35:22;100960.50;;;25.15;26.11
34124;BME280;13153;52.316;21.166;2022-09-03T10:43:55;100950.28;;;24.91;26.51
34124;BME280;13153;52.316;21.166;2022-09-03T10:46:27;100936.66;;;24.98;26.87
34124;BME280;13153;52.316;21.166;2022-09-03T10:49:38;100930.41;;;24.98;26.53
34124;BME280;13153;52.316;21.166;2022-09-03T10:52:26;100931.31;;;24.95;26.62
34124;BME280;13153;52.316;21.166;2022-09-03T10:55:05;100926.09;;;24.89;27.49
34124;BME280;13153;52.316;21.166;2022-09-03T11:00:29;100929.72;;;24.87;26.40
34124;BME280;13153;52.316;21.166;2022-09-03T11:06:19;100933.75;;;24.69;26.77
34124;BME280;13153;52.316;21.166;2022-09-03T11:09:04;100923.13;;;24.63;25.94
34124;BME280;13153;52.316;21.166;2022-09-03T11:11:44;100927.44;;;24.72;27.01
34124;BME280;13153;52.316;21.166;2022-09-03T11:14:18;100914.06;;;24.67;25.75
34124;BME280;13153;52.316;21.166;2022-09-03T11:16:59;100916.66;;;24.72;26.91
34124;BME280;13153;52.316;21.166;2022-09-03T11:19:42;100910.25;;;24.77;27.35
34124;BME280;13153;52.316;21.166;2022-09-03T11:22:12;100908.47;;;24.76;26.06
34124;BME280;13153;52.316;21.166;2022-09-03T11:24:41;100916.34;;;24.45;26.47
34124;BME280;13153;52.316;21.166;2022-09-03T11:30:11;100901.84;;;24.52;26.04
34124;BME280;13153;52.316;21.166;2022-09-03T11:35:23;100894.47;;;24.60;25.80
34124;BME280;13153;52.316;21.166;2022-09-03T11:38:02;100894.34;;;24.66;25.77
34124;BME280;13153;52.316;21.166;2022-09-03T11:40:34;100903.03;;;24.79;27.58
34124;BME280;13153;52.316;21.166;2022-09-03T11:43:31;100902.94;;;24.82;27.74
34124;BME280;13153;52.316;21.166;2022-09-03T11:48:51;100906.97;;;24.63;26.00
34124;BME280;13153;52.316;21.166;2022-09-03T11:51:31;100909.78;;;24.58;26.21
34124;BME280;13153;52.316;21.166;2022-09-03T11:54:02;100905.22;;;24.62;25.96
34124;BME280;13153;52.316;21.166;2022-09-03T11:56:31;100895.25;;;24.65;25.46
34124;BME280;13153;52.316;21.166;2022-09-03T12:04:27;100894.72;;;24.87;25.58
34124;BME280;13153;52.316;21.166;2022-09-03T12:07:25;100891.56;;;24.71;26.68
34124;BME280;13153;52.316;21.166;2022-09-03T12:10:25;100883.69;;;24.62;25.80
34124;BME280;13153;52.316;21.166;2022-09-03T12:19:02;100878.31;;;24.62;26.07
34124;BME280;13153;52.316;21.166;2022-09-03T12:21:29;100875.53;;;24.65;26.16
34124;BME280;13153;52.316;21.166;2022-09-03T12:23:55;100861.13;;;24.67;26.44
34124;BME280;13153;52.316;21.166;2022-09-03T12:26:24;100871.97;;;24.64;26.41
34124;BME280;13153;52.316;21.166;2022-09-03T12:28:55;100861.09;;;24.69;25.47
34124;BME280;13153;52.316;21.166;2022-09-03T12:31:45;100869.09;;;24.72;25.39
34124;BME280;13153;52.316;21.166;2022-09-03T12:34:18;100862.66;;;24.79;24.67
34124;BME280;13153;52.316;21.166;2022-09-03T12:36:49;100859.13;;;24.76;25.69
34124;BME280;13153;52.316;21.166;2022-09-03T12:39:27;100863.78;;;24.69;26.03
34124;BME280;13153;52.316;21.166;2022-09-03T12:42:07;100854.69;;;24.75;25.72
34124;BME280;13153;52.316;21.166;2022-09-03T12:47:26;100847.03;;;24.92;26.33
34124;BME280;13153;52.316;21.166;2022-09-03T12:49:57;100846.22;;;24.88;25.80
34124;BME280;13153;52.316;21.166;2022-09-03T12:55:00;100846.41;;;24.82;26.53
34124;BME280;13153;52.316;21.166;2022-09-03T12:57:43;100841.97;;;24.81;25.57
34124;BME280;13153;52.316;21.166;2022-09-03T13:00:14;100841.78;;;24.87;26.26
34124;BME280;13153;52.316;21.166;2022-09-03T13:02:54;100841.72;;;24.89;26.33
34124;BME280;13153;52.316;21.166;2022-09-03T13:05:41;100832.78;;;24.88;26.08
34124;BME280;13153;52.316;21.166;2022-09-03T13:08:14;100825.63;;;24.87;25.97
34124;BME280;13153;52.316;21.166;2022-09-03T13:10:43;100827.47;;;24.85;26.51
34124;BME280;13153;52.316;21.166;2022-09-03T13:13:27;100825.47;;;24.93;26.55
34124;BME280;13153;52.316;21.166;2022-09-03T13:19:08;100818.34;;;24.91;26.45
34124;BME280;13153;52.316;21.166;2022-09-03T13:22:29;100818.38;;;24.89;25.68
34124;BME280;13153;52.316;21.166;2022-09-03T13:25:25;100812.34;;;24.81;25.89
34124;BME280;13153;52.316;21.166;2022-09-03T13:31:59;100813.34;;;24.77;26.38
34124;BME280;13153;52.316;21.166;2022-09-03T13:34:39;100804.34;;;24.78;27.28
34124;BME280;13153;52.316;21.166;2022-09-03T13:37:21;100800.03;;;24.71;26.94
34124;BME280;13153;52.316;21.166;2022-09-03T13:40:02;100811.59;;;24.75;26.60
34124;BME280;13153;52.316;21.166;2022-09-03T13:42:59;100800.78;;;24.78;26.75
34124;BME280;13153;52.316;21.166;2022-09-03T13:46:06;100795.94;;;24.90;26.52
34124;BME280;13153;52.316;21.166;2022-09-03T13:48:40;100797.69;;;24.91;26.75
34124;BME280;13153;52.316;21.166;2022-09-03T13:51:55;100795.09;;;24.88;25.86
34124;BME280;13153;52.316;21.166;2022-09-03T13:54:35;100791.50;;;24.88;25.97
34124;BME280;13153;52.316;21.166;2022-09-03T13:57:08;100788.63;;;24.95;26.50
34124;BME280;13153;52.316;21.166;2022-09-03T13:59:59;100788.81;;;24.88;26.86
34124;BME280;13153;52.316;21.166;2022-09-03T14:02:54;100781.63;;;24.88;25.89
34124;BME280;13153;52.316;21.166;2022-09-03T14:08:12;100793.31;;;24.87;26.13
34124;BME280;13153;52.316;21.166;2022-09-03T14:10:59;100791.59;;;24.85;25.38
34124;BME280;13153;52.316;21.166;2022-09-03T14:22:14;100800.66;;;24.82;26.14
34124;BME280;13153;52.316;21.166;2022-09-03T14:24:52;100793.38;;;24.84;26.15
34124;BME280;13153;52.316;21.166;2022-09-03T14:27:28;100799.81;;;24.80;25.47
34124;BME280;13153;52.316;21.166;2022-09-03T14:30:32;100795.50;;;24.73;25.93
34124;BME280;13153;52.316;21.166;2022-09-03T14:33:10;100795.44;;;24.76;26.18
34124;BME280;13153;52.316;21.166;2022-09-03T14:39:14;100788.88;;;24.85;25.50
34124;BME280;13153;52.316;21.166;2022-09-03T14:47:36;100789.88;;;24.82;26.01
34124;BME280;13153;52.316;21.166;2022-09-03T14:59:57;100784.03;;;24.65;25.86
34124;BME280;13153;52.316;21.166;2022-09-03T15:08:07;100779.31;;;24.75;26.00
34124;BME280;13153;52.316;21.166;2022-09-03T15:10:46;100778.47;;;24.73;26.35
34124;BME280;13153;52.316;21.166;2022-09-03T15:13:27;100774.00;;;24.72;25.86
34124;BME280;13153;52.316;21.166;2022-09-03T15:24:17;100788.50;;;24.66;25.80
34124;BME280;13153;52.316;21.166;2022-09-03T15:30:19;100780.38;;;24.67;26.16
34124;BME280;13153;52.316;21.166;2022-09-03T15:32:52;100787.47;;;24.72;26.27
34124;BME280;13153;52.316;21.166;2022-09-03T15:41:02;100792.34;;;24.56;26.39
34124;BME280;13153;52.316;21.166;2022-09-03T15:43:32;100785.97;;;24.60;26.54
34124;BME280;13153;52.316;21.166;2022-09-03T15:46:02;100786.91;;;24.57;26.41
34124;BME280;13153;52.316;21.166;2022-09-03T15:48:49;100787.69;;;24.62;26.08
34124;BME280;13153;52.316;21.166;2022-09-03T15:51:30;100780.38;;;24.67;26.84
34124;BME280;13153;52.316;21.166;2022-09-03T15:54:20;100790.50;;;24.58;26.67
34124;BME280;13153;52.316;21.166;2022-09-03T15:57:02;100788.78;;;24.54;26.37
34124;BME280;13153;52.316;21.166;2022-09-03T15:59:40;100791.38;;;24.58;26.93
34124;BME280;13153;52.316;21.166;2022-09-03T16:02:31;100794.03;;;24.60;26.65
34124;BME280;13153;52.316;21.166;2022-09-03T16:05:06;100795.88;;;24.58;26.46
34124;BME280;13153;52.316;21.166;2022-09-03T16:10:21;100790.47;;;24.59;26.66
34124;BME280;13153;52.316;21.166;2022-09-03T16:13:11;100793.25;;;24.55;27.17